Language selection

Features

My Weather Profile Weather Topics  | 

Lake Nipissing: Past 24 Hour Conditions

 

N Huron - 45003

12:00 PM EDT 22 October 2019Buoy position: 45.35N 82.83W
Disclaimer

This table is a summary of hourly weather conditions for the past 24 hours.
Please note that these observations might not always be representative of weather conditions over their associated marine area.

Date / Time
(EDT)
Wind(knots) Wave height(m) Wave period(s) Pressure(kPa) Air tempC) Water tempC)
22 October 2019
12:00 S 25 gust 33 1.8 6.0 99.7 11 12
11:00 S 25 gust 29 1.6 6.0 99.8 12 12
10:00 SSE 23 gust 27 1.4 6.0 99.8 12 12
9:00 SSE 22 gust 25 1.3 7.0 99.9 12 12
8:00 S 16 gust 19 1.4 7.0 99.9 12 12
7:00 S 16 gust 19 1.7 8.0 100.0 12 12
6:00 S 16 gust 19 2.0 7.0 100.0 12 12
5:00 SSE 17 gust 22 2.2 7.0 100.0 12 12
4:00 SSE 17 gust 22 2.2 7.0 100.0 13 12
3:00 SSE 17 gust 22 2.4 7.0 100.0 13 12
2:00 SE 22 gust 25 2.2 7.0 100.0 13 12
1:00 SE 25 gust 31 2.4 7.0 100.0 13 12
0:00 ESE 23 gust 31 2.3 7.0 100.1 13 12
21 October 2019
23:00 ESE 25 gust 33 2.6 7.0 100.2 12 12
22:00 E 27 gust 35 2.2 6.0 100.2 12 12
21:00 E 27 gust 33 2.1 6.0 100.3 12 12
20:00 E 27 gust 33 2.2 6.0 100.4 13 12
19:00 E 29 gust 37 1.7 6.0 100.4 13 12
18:00 E 25 gust 31 1.4 6.0 100.6 13 12
17:00 E 22 gust 25 1.5 6.0 100.8 13 12
16:00 E 22 gust 25 1.3 5.0 100.9 13 12
15:00 E 23 gust 27 1.3 5.0 100.9 13 12
14:00 E 19 gust 23 1.3 5.0 101.1 12 12
13:00 E 19 gust 23 1.2 5.0 101.2 12 12
12:00 E 19 gust 23 1.1 5.0 101.4 12 12

Zoom-in to make a selection

Map of Great Lakes - Lake Erie and Lake Ontario marine weather areas N Huron - 45003 W Erie - 45005 S Huron - 45008 Lake Ontario - 45012 Port Stanley - 45132 Prince Edward Point - 45135 Georgian Bay - 45137 Grimsby - 45139 Port Colborne - 45142 South Georgian Bay - 45143 Lake St Clair - 45147 South Lake Huron - 45149 Lake Simcoe - 45151 Lake Nipissing - 45152 North Channel - 45154 Ajax - 45159 Sault Ste. Marie Airport Killarney Greater Sudbury Airport North Bay Airport Gore Bay-Manitoulin Airport Great Duck Island Brockville Grenadier Island Kingston Airport Collingwood Lagoon City Muskoka Airport Parry Sound Harbour Lake Simcoe Regional Airport Wiarton Airport Western Islands Cove Island Goderich Sarnia Chris Hadfield Airport Tobermory Harrow AAFC Long Point Port Weller St. Catharines / Niagara District Airport Southeast Shoal Vineland Station Welland-Pelham Windsor Airport Port Colborne Erieau Point Pelee Burlington Lift Bridge Cobourg Hamilton Munro Int'l Airport Oshawa Executive Airport Point Petre Toronto City Centre Airport CFB Trenton Peterborough Municipal Airport
Legend:
buoy Buoy
land station Land Station

Great Lakes - Lake Erie and Lake Ontario Area

Another Region

What we are doing

Date modified: